createdAt,value
2022-12-15T00:01:43.470Z,78.49
2022-12-15T00:04:29.363Z,78.69
2022-12-15T00:07:14.915Z,78.80
2022-12-15T00:10:00.637Z,78.98
2022-12-15T00:12:46.146Z,79.01
2022-12-15T00:15:31.626Z,79.19
2022-12-15T00:18:16.890Z,79.66
2022-12-15T00:21:02.980Z,79.60
2022-12-15T00:23:48.336Z,79.60
2022-12-15T00:26:33.827Z,79.75
2022-12-15T00:29:19.290Z,79.97
2022-12-15T00:32:04.636Z,80.18
2022-12-15T00:34:50.044Z,80.24
2022-12-15T00:37:35.617Z,80.34
2022-12-15T00:40:04.773Z,80.31
2022-12-15T00:42:31.428Z,80.56
2022-12-15T00:44:59.023Z,80.55
2022-12-15T00:48:25.427Z,80.65
2022-12-15T00:51:50.463Z,80.66
2022-12-15T00:55:15.428Z,80.86
2022-12-15T01:01:53.280Z,80.96
2022-12-15T01:04:38.730Z,81.11
2022-12-15T01:07:23.881Z,80.98
2022-12-15T01:10:09.484Z,81.24
2022-12-15T01:12:54.860Z,81.13
2022-12-15T01:15:40.305Z,81.19
2022-12-15T01:18:25.708Z,81.38
2022-12-15T01:20:57.544Z,81.31
2022-12-15T01:23:24.529Z,81.45
2022-12-15T01:25:55.215Z,81.38
2022-12-15T01:28:22.463Z,81.36
2022-12-15T01:30:49.393Z,81.57
2022-12-15T01:33:17.279Z,81.62
2022-12-15T01:35:44.232Z,81.74
2022-12-15T01:38:11.558Z,81.80
2022-12-15T01:40:47.619Z,81.94
2022-12-15T01:43:19.141Z,81.78
2022-12-15T01:45:49.102Z,81.93
2022-12-15T01:48:23.439Z,82.12
2022-12-15T01:51:12.339Z,82.05
2022-12-15T01:54:09.900Z,82.18
2022-12-15T01:56:50.735Z,82.25
2022-12-15T01:59:24.480Z,82.10
2022-12-15T02:01:51.654Z,82.27
2022-12-15T02:04:21.692Z,82.31
2022-12-15T02:06:48.874Z,82.49
2022-12-15T02:09:16.182Z,82.40
2022-12-15T02:12:21.091Z,82.40
2022-12-15T02:15:09.803Z,82.48
2022-12-15T02:17:41.183Z,82.52
2022-12-15T02:20:26.812Z,82.52
2022-12-15T02:23:28.414Z,82.55
2022-12-15T02:26:04.424Z,82.51
2022-12-15T02:28:42.939Z,82.47
2022-12-15T02:31:37.054Z,82.42
2022-12-15T02:34:11.825Z,82.59
2022-12-15T02:36:47.913Z,82.54
2022-12-15T02:39:15.016Z,82.63
2022-12-15T02:41:44.999Z,82.86
2022-12-15T02:44:31.824Z,82.83
2022-12-15T02:47:13.659Z,83.00
2022-12-15T02:49:46.222Z,83.04
2022-12-15T02:52:32.549Z,83.00
2022-12-15T02:55:11.416Z,83.17
2022-12-15T02:58:03.245Z,83.08
2022-12-15T03:00:35.259Z,83.02
2022-12-15T03:03:02.131Z,83.14
2022-12-15T03:05:32.117Z,83.13
2022-12-15T03:07:58.944Z,83.12
2022-12-15T03:10:26.397Z,83.26
2022-12-15T03:12:54.593Z,83.28
2022-12-15T03:15:21.875Z,83.09
2022-12-15T03:17:48.719Z,83.21
2022-12-15T03:20:15.924Z,83.07
2022-12-15T03:22:42.747Z,83.29
2022-12-15T03:25:09.545Z,83.28
2022-12-15T03:27:36.223Z,83.33
2022-12-15T03:30:03.433Z,83.33
2022-12-15T03:32:30.332Z,83.36
2022-12-15T03:34:56.928Z,83.35
2022-12-15T03:37:23.928Z,83.34
2022-12-15T03:39:50.579Z,83.32
2022-12-15T03:42:37.355Z,83.46
2022-12-15T03:45:04.706Z,83.35
2022-12-15T03:47:32.156Z,83.35
2022-12-15T03:49:59.023Z,83.47
2022-12-15T03:52:25.731Z,83.50
2022-12-15T03:55:52.359Z,83.43
2022-12-15T03:59:18.774Z,83.39
2022-12-15T04:05:38.412Z,83.82
2022-12-15T04:08:05.603Z,83.71
2022-12-15T04:10:34.911Z,83.66
2022-12-15T04:13:07.630Z,83.93
2022-12-15T04:15:35.326Z,83.78
2022-12-15T04:18:03.825Z,83.69
2022-12-15T04:20:31.068Z,83.89
2022-12-15T04:22:57.736Z,84.02
2022-12-15T04:25:44.834Z,83.67
2022-12-15T04:28:31.238Z,83.81
2022-12-15T04:31:28.919Z,83.78
2022-12-15T04:34:19.928Z,83.94
2022-12-15T04:37:09.207Z,84.05
2022-12-15T04:39:56.863Z,84.03
2022-12-15T04:42:42.661Z,84.03
2022-12-15T04:45:29.445Z,84.12
2022-12-15T04:48:14.978Z,84.25
2022-12-15T04:51:00.043Z,84.16
2022-12-15T04:53:45.540Z,84.31
2022-12-15T04:56:32.234Z,84.27
2022-12-15T04:59:18.400Z,84.42
2022-12-15T05:02:03.927Z,84.47
2022-12-15T05:04:49.696Z,84.66
2022-12-15T05:07:35.497Z,84.46
2022-12-15T05:10:21.550Z,84.83
2022-12-15T05:13:06.732Z,84.60
2022-12-15T05:15:52.913Z,84.78
2022-12-15T05:18:39.240Z,84.97
2022-12-15T05:21:25.643Z,84.98
2022-12-15T05:24:11.067Z,84.98
2022-12-15T05:26:56.819Z,85.02
2022-12-15T05:29:42.350Z,84.92
2022-12-15T05:32:09.336Z,85.14
2022-12-15T05:34:37.433Z,85.23
2022-12-15T05:37:06.823Z,85.30
2022-12-15T05:39:33.902Z,85.47
2022-12-15T05:42:00.692Z,85.33
2022-12-15T05:44:28.951Z,85.58
2022-12-15T05:46:55.737Z,85.57
2022-12-15T05:49:23.411Z,85.58
2022-12-15T05:51:50.418Z,85.65
2022-12-15T05:54:19.600Z,85.66
2022-12-15T05:56:47.123Z,85.85
2022-12-15T05:59:17.166Z,85.69
2022-12-15T06:01:44.263Z,85.68
2022-12-15T06:04:12.954Z,85.63
2022-12-15T06:06:40.661Z,86.03
2022-12-15T06:09:07.557Z,85.77
2022-12-15T06:11:34.315Z,85.87
2022-12-15T06:14:00.981Z,85.86
2022-12-15T06:16:28.366Z,85.90
2022-12-15T06:18:58.602Z,85.88
2022-12-15T06:21:28.635Z,85.96
2022-12-15T06:23:56.750Z,85.99
2022-12-15T06:26:26.551Z,85.99
2022-12-15T06:28:56.277Z,86.12
2022-12-15T06:31:25.700Z,86.05
2022-12-15T06:34:01.051Z,86.00
2022-12-15T06:36:29.357Z,86.15
2022-12-15T06:38:59.466Z,86.51
2022-12-15T06:41:26.802Z,86.45
2022-12-15T06:43:57.932Z,86.17
2022-12-15T06:46:26.110Z,86.14
2022-12-15T06:48:53.322Z,86.39
2022-12-15T06:51:20.736Z,86.34
2022-12-15T06:53:54.097Z,86.48
2022-12-15T06:56:34.677Z,86.42
2022-12-15T06:59:03.752Z,86.23
2022-12-15T07:01:31.487Z,86.33
2022-12-15T07:04:03.354Z,86.58
2022-12-15T07:06:36.750Z,86.60
2022-12-15T07:09:05.526Z,86.48
2022-12-15T07:11:32.153Z,86.46
2022-12-15T07:13:58.915Z,86.67
2022-12-15T07:16:25.840Z,86.53
2022-12-15T07:18:52.631Z,86.51
2022-12-15T07:21:19.359Z,86.52
2022-12-15T07:23:55.825Z,86.57
2022-12-15T07:26:23.707Z,86.65
2022-12-15T07:28:50.701Z,86.65
2022-12-15T07:31:17.988Z,86.79
2022-12-15T07:33:45.057Z,86.75
2022-12-15T07:36:12.330Z,86.82
2022-12-15T07:38:39.278Z,86.62
2022-12-15T07:41:08.360Z,86.92
2022-12-15T07:43:36.426Z,86.73
2022-12-15T07:46:05.148Z,87.03
2022-12-15T07:48:32.953Z,86.91
2022-12-15T07:51:08.478Z,86.79
2022-12-15T07:53:38.124Z,86.86
2022-12-15T07:56:08.439Z,86.91
2022-12-15T07:58:36.771Z,86.95
2022-12-15T08:01:06.887Z,86.85
2022-12-15T08:03:34.450Z,87.02
2022-12-15T08:06:13.700Z,86.83
2022-12-15T08:08:40.681Z,86.96
2022-12-15T08:11:09.143Z,86.97
2022-12-15T08:16:23.746Z,87.17
2022-12-15T08:18:50.565Z,87.10
2022-12-15T08:21:17.399Z,87.13
2022-12-15T08:23:44.693Z,87.23
2022-12-15T08:26:14.532Z,87.28
2022-12-15T08:28:41.992Z,87.26
2022-12-15T08:31:11.147Z,87.42
2022-12-15T08:33:38.353Z,87.22
2022-12-15T08:36:08.427Z,87.39
2022-12-15T08:38:36.868Z,87.17
2022-12-15T08:41:11.957Z,87.44
2022-12-15T08:43:45.756Z,87.45
2022-12-15T08:46:16.060Z,87.44
2022-12-15T08:48:43.155Z,87.44
2022-12-15T08:51:10.323Z,87.46
2022-12-15T08:53:37.076Z,87.41
2022-12-15T08:56:12.453Z,87.37
2022-12-15T08:58:39.917Z,87.29
2022-12-15T09:01:10.871Z,87.38
2022-12-15T09:03:37.764Z,87.52
2022-12-15T09:06:13.337Z,87.56
2022-12-15T09:08:40.451Z,87.42
2022-12-15T09:11:07.199Z,87.53
2022-12-15T09:13:35.275Z,87.57
2022-12-15T09:16:10.277Z,87.33
2022-12-15T09:18:38.016Z,87.39
2022-12-15T09:21:06.698Z,87.59
2022-12-15T09:23:35.312Z,87.38
2022-12-15T09:26:04.895Z,87.46
2022-12-15T09:28:35.128Z,87.40
2022-12-15T09:31:10.641Z,87.45
2022-12-15T09:33:37.960Z,87.21
2022-12-15T09:36:05.361Z,87.46
2022-12-15T09:38:34.840Z,87.56
2022-12-15T09:41:29.974Z,87.30
2022-12-15T09:44:04.261Z,87.22
2022-12-15T09:46:49.774Z,87.35
2022-12-15T09:49:35.269Z,87.24
2022-12-15T09:52:11.053Z,87.25
2022-12-15T09:54:38.940Z,87.21
2022-12-15T09:57:14.818Z,87.12
2022-12-15T09:59:55.868Z,87.33
2022-12-15T10:02:37.881Z,87.17
2022-12-15T10:05:22.161Z,87.05
2022-12-15T10:07:50.728Z,87.40
2022-12-15T10:10:41.911Z,87.24
2022-12-15T10:13:30.493Z,87.07
2022-12-15T10:16:14.710Z,87.21
2022-12-15T10:18:57.565Z,87.05
2022-12-15T10:21:28.404Z,87.20
2022-12-15T10:24:04.098Z,87.19
2022-12-15T10:26:35.378Z,87.09
2022-12-15T10:29:39.596Z,87.03
2022-12-15T10:32:20.157Z,87.06
2022-12-15T10:34:47.046Z,87.01
2022-12-15T10:37:18.876Z,86.88
2022-12-15T10:39:50.284Z,87.04
2022-12-15T10:42:25.758Z,86.97
2022-12-15T10:44:56.232Z,87.00
2022-12-15T10:47:26.259Z,86.92
2022-12-15T10:49:58.376Z,86.83
2022-12-15T10:52:51.956Z,86.87
2022-12-15T10:55:33.725Z,86.75
2022-12-15T10:58:03.153Z,86.77
2022-12-15T11:00:32.041Z,86.74
2022-12-15T11:02:59.964Z,86.65
2022-12-15T11:05:27.651Z,86.71
2022-12-15T11:08:17.668Z,86.38
2022-12-15T11:11:13.839Z,86.50
2022-12-15T11:13:42.023Z,86.43
2022-12-15T11:16:19.806Z,86.30
2022-12-15T11:18:52.666Z,86.25
2022-12-15T11:21:22.522Z,86.21
2022-12-15T11:24:08.072Z,86.27
2022-12-15T11:26:50.808Z,86.16
2022-12-15T11:29:23.783Z,86.15
2022-12-15T11:31:55.328Z,86.25
2022-12-15T11:34:26.256Z,86.10
2022-12-15T11:37:13.590Z,86.20
2022-12-15T11:39:52.348Z,86.23
2022-12-15T11:42:39.282Z,86.11
2022-12-15T11:45:57.078Z,86.08
2022-12-15T11:49:02.864Z,86.04
2022-12-15T11:51:58.283Z,86.09
2022-12-15T11:54:45.485Z,85.94
2022-12-15T11:57:15.275Z,85.91
2022-12-15T11:59:48.006Z,85.87
2022-12-15T12:02:42.009Z,85.78
2022-12-15T12:05:30.023Z,85.78
2022-12-15T12:08:24.565Z,85.72
2022-12-15T12:11:09.862Z,85.68
2022-12-15T12:14:11.912Z,85.50
2022-12-15T12:16:48.639Z,85.62
2022-12-15T12:19:41.970Z,85.57
2022-12-15T12:22:34.780Z,85.55
2022-12-15T12:25:05.271Z,85.48
2022-12-15T12:27:45.040Z,85.43
2022-12-15T12:30:18.612Z,85.45
2022-12-15T12:32:56.587Z,85.31
2022-12-15T12:35:38.308Z,85.39
2022-12-15T12:38:07.846Z,85.33
2022-12-15T12:40:41.798Z,85.22
2022-12-15T12:43:14.063Z,85.30
2022-12-15T12:45:57.439Z,85.16
2022-12-15T12:48:56.312Z,85.22
2022-12-15T12:51:25.504Z,85.19
2022-12-15T12:53:52.677Z,85.24
2022-12-15T12:56:45.480Z,85.02
2022-12-15T12:59:50.370Z,85.12
2022-12-15T13:02:26.781Z,85.12
2022-12-15T13:05:04.005Z,85.13
2022-12-15T13:07:42.132Z,85.12
2022-12-15T13:10:08.789Z,85.16
2022-12-15T13:12:54.725Z,85.02
2022-12-15T13:15:27.763Z,84.98
2022-12-15T13:18:14.223Z,84.96
2022-12-15T13:20:42.446Z,84.99
2022-12-15T13:23:37.453Z,84.94
2022-12-15T13:26:04.261Z,84.87
2022-12-15T13:28:39.192Z,84.88
2022-12-15T13:31:18.907Z,84.71
2022-12-15T13:33:52.812Z,84.79
2022-12-15T13:36:38.109Z,84.74
2022-12-15T13:39:27.960Z,84.70
2022-12-15T13:44:57.358Z,84.58
2022-12-15T13:47:28.191Z,84.55
2022-12-15T13:50:19.754Z,84.72
2022-12-15T13:53:17.923Z,84.60
2022-12-15T13:55:46.380Z,84.51
2022-12-15T13:58:20.409Z,84.47
2022-12-15T14:00:54.173Z,84.41
2022-12-15T14:03:21.469Z,84.35
2022-12-15T14:05:51.191Z,84.39
2022-12-15T14:08:19.664Z,84.33
2022-12-15T14:10:55.366Z,84.26
2022-12-15T14:13:26.701Z,84.24
2022-12-15T14:16:00.187Z,84.24
2022-12-15T14:18:34.350Z,84.11
2022-12-15T14:21:05.396Z,84.19
2022-12-15T14:24:11.292Z,84.15
2022-12-15T14:26:32.067Z,83.98
2022-12-15T14:29:05.310Z,83.97
2022-12-15T14:31:32.494Z,84.02
2022-12-15T14:34:19.275Z,84.04
2022-12-15T14:36:46.497Z,84.04
2022-12-15T14:39:36.413Z,83.95
2022-12-15T14:42:04.406Z,83.99
2022-12-15T14:44:48.087Z,83.99
2022-12-15T14:47:27.289Z,84.02
2022-12-15T14:49:56.113Z,84.00
2022-12-15T14:52:27.270Z,84.12
2022-12-15T14:54:57.631Z,84.13
2022-12-15T14:57:40.844Z,84.17
2022-12-15T15:00:26.344Z,84.07
2022-12-15T15:03:18.147Z,84.22
2022-12-15T15:05:48.901Z,84.16
2022-12-15T15:08:30.062Z,84.29
2022-12-15T15:11:18.902Z,84.28
2022-12-15T15:13:46.119Z,84.25
2022-12-15T15:16:19.043Z,84.28
2022-12-15T15:18:51.705Z,84.32
2022-12-15T15:21:22.381Z,84.43
2022-12-15T15:24:25.644Z,84.43
2022-12-15T15:26:53.552Z,84.44
2022-12-15T15:29:41.180Z,84.58
2022-12-15T15:32:22.549Z,84.62
2022-12-15T15:34:49.652Z,84.69
2022-12-15T15:37:26.245Z,84.86
2022-12-15T15:39:56.042Z,84.95
2022-12-15T15:42:26.620Z,84.95
2022-12-15T15:44:58.117Z,85.01
2022-12-15T15:47:25.817Z,85.01
2022-12-15T15:49:55.051Z,85.14
2022-12-15T15:52:22.649Z,85.06
2022-12-15T15:54:49.747Z,85.07
2022-12-15T15:57:17.972Z,85.24
2022-12-15T15:59:45.600Z,85.23
2022-12-15T16:02:14.277Z,85.31
2022-12-15T16:04:42.668Z,85.40
2022-12-15T16:07:29.423Z,85.40
2022-12-15T16:09:56.850Z,85.59
2022-12-15T16:12:36.229Z,85.63
2022-12-15T16:15:02.871Z,85.82
2022-12-15T16:17:29.586Z,85.75
2022-12-15T16:19:56.529Z,85.83
2022-12-15T16:22:23.497Z,85.88
2022-12-15T16:24:50.910Z,86.04
2022-12-15T16:27:17.815Z,86.20
2022-12-15T16:29:44.632Z,86.28
2022-12-15T16:32:12.565Z,86.31
2022-12-15T16:34:39.435Z,86.43
2022-12-15T16:37:08.804Z,86.60
2022-12-15T16:39:35.613Z,86.60
2022-12-15T16:42:02.914Z,86.80
2022-12-15T16:44:29.903Z,86.98
2022-12-15T16:46:57.613Z,87.00
2022-12-15T16:49:25.072Z,87.10
2022-12-15T16:51:53.734Z,87.07
2022-12-15T16:54:25.357Z,87.14
2022-12-15T16:56:57.067Z,87.33
2022-12-15T16:59:34.878Z,87.35
2022-12-15T17:02:16.189Z,87.52
2022-12-15T17:04:43.052Z,87.46
2022-12-15T17:07:19.563Z,87.49
2022-12-15T17:09:47.545Z,87.68
2022-12-15T17:12:17.613Z,87.83
2022-12-15T17:14:45.065Z,87.94
2022-12-15T17:17:16.627Z,87.93
2022-12-15T17:19:57.853Z,88.05
2022-12-15T17:22:26.804Z,88.10
2022-12-15T17:24:53.537Z,88.23
2022-12-15T17:27:28.292Z,88.30
2022-12-15T17:30:00.629Z,88.28
2022-12-15T17:32:27.260Z,88.41
2022-12-15T17:34:54.069Z,88.41
2022-12-15T17:37:20.992Z,88.39
2022-12-15T17:39:51.525Z,88.33
2022-12-15T17:42:20.522Z,88.44
2022-12-15T17:44:48.857Z,88.41
2022-12-15T17:47:16.807Z,88.62
2022-12-15T17:49:44.223Z,88.47
2022-12-15T17:52:28.443Z,88.66
2022-12-15T17:54:56.072Z,88.67
2022-12-15T17:57:22.900Z,88.64
2022-12-15T17:59:50.072Z,88.73
2022-12-15T18:02:17.296Z,88.94
2022-12-15T18:04:44.374Z,88.76
2022-12-15T18:07:22.971Z,88.97
2022-12-15T18:09:53.244Z,88.83
2022-12-15T18:12:25.638Z,89.05
2022-12-15T18:14:53.085Z,89.12
2022-12-15T18:17:20.268Z,89.13
2022-12-15T18:19:47.000Z,89.02
2022-12-15T18:22:22.269Z,89.44
2022-12-15T18:24:50.404Z,89.36
2022-12-15T18:27:26.643Z,89.27
2022-12-15T18:29:54.235Z,89.36
2022-12-15T18:32:24.404Z,89.58
2022-12-15T18:34:51.661Z,89.64
2022-12-15T18:37:21.391Z,89.50
2022-12-15T18:39:48.441Z,89.60
2022-12-15T18:42:17.727Z,89.64
2022-12-15T18:44:47.730Z,89.90
2022-12-15T18:47:20.077Z,89.91
2022-12-15T18:49:47.219Z,89.90
2022-12-15T18:54:52.681Z,89.96
2022-12-15T18:57:40.867Z,90.15
2022-12-15T19:00:13.666Z,90.07
2022-12-15T19:02:41.632Z,90.14
2022-12-15T19:05:27.392Z,90.41
2022-12-15T19:07:57.344Z,90.24
2022-12-15T19:10:27.002Z,90.34
2022-12-15T19:12:58.364Z,90.45
2022-12-15T19:15:25.624Z,90.50
2022-12-15T19:18:11.055Z,90.46
2022-12-15T19:20:56.914Z,90.35
2022-12-15T19:23:23.656Z,90.40
2022-12-15T19:25:52.309Z,90.63
2022-12-15T19:28:22.421Z,90.73
2022-12-15T19:30:50.352Z,90.80
2022-12-15T19:33:18.241Z,90.68
2022-12-15T19:35:50.536Z,90.74
2022-12-15T19:38:22.390Z,90.78
2022-12-15T19:40:53.348Z,90.78
2022-12-15T19:43:21.498Z,90.91
2022-12-15T19:45:49.738Z,90.92
2022-12-15T19:48:22.938Z,91.02
2022-12-15T19:50:52.476Z,91.04
2022-12-15T19:53:26.239Z,91.25
2022-12-15T19:55:55.703Z,91.04
2022-12-15T19:58:32.167Z,91.23
2022-12-15T20:01:12.687Z,91.13
2022-12-15T20:03:39.799Z,91.27
2022-12-15T20:06:14.337Z,91.05
2022-12-15T20:08:43.537Z,91.25
2022-12-15T20:11:18.903Z,91.18
2022-12-15T20:13:46.934Z,91.30
2022-12-15T20:16:17.532Z,91.15
2022-12-15T20:18:49.452Z,91.45
2022-12-15T20:22:16.720Z,91.27
2022-12-15T20:24:44.731Z,91.40
2022-12-15T20:27:17.256Z,91.34
2022-12-15T20:29:44.982Z,91.48
2022-12-15T20:32:20.869Z,91.38
2022-12-15T20:34:48.074Z,91.70
2022-12-15T20:37:18.709Z,91.55
2022-12-15T20:39:45.443Z,91.49
2022-12-15T20:42:18.975Z,91.68
2022-12-15T20:44:45.721Z,91.49
2022-12-15T20:47:22.379Z,91.58
2022-12-15T20:49:50.524Z,91.69
2022-12-15T20:52:25.676Z,91.60
2022-12-15T20:54:54.159Z,91.61
2022-12-15T20:57:20.835Z,91.83
2022-12-15T20:59:47.672Z,91.84
2022-12-15T21:02:19.740Z,91.65
2022-12-15T21:04:47.158Z,91.89
2022-12-15T21:07:14.236Z,91.88
2022-12-15T21:09:40.972Z,91.77
2022-12-15T21:12:27.939Z,91.90
2022-12-15T21:14:55.161Z,91.87
2022-12-15T21:17:24.210Z,91.92
2022-12-15T21:19:51.021Z,91.89
2022-12-15T21:22:25.029Z,91.98
2022-12-15T21:24:54.223Z,92.02
2022-12-15T21:27:22.011Z,91.83
2022-12-15T21:29:52.714Z,91.96
2022-12-15T21:32:20.152Z,92.13
2022-12-15T21:34:46.864Z,92.08
2022-12-15T21:37:44.602Z,92.15
2022-12-15T21:40:17.832Z,92.22
2022-12-15T21:42:44.813Z,92.19
2022-12-15T21:45:23.023Z,92.14
2022-12-15T21:48:09.436Z,92.18
2022-12-15T21:50:38.097Z,92.32
2022-12-15T21:53:06.406Z,92.39
2022-12-15T21:55:33.150Z,92.34
2022-12-15T21:57:59.940Z,92.33
2022-12-15T22:00:26.717Z,92.26
2022-12-15T22:02:53.893Z,92.52
2022-12-15T22:05:29.501Z,92.42
2022-12-15T22:07:58.510Z,92.44
2022-12-15T22:10:25.451Z,92.57
2022-12-15T22:12:59.389Z,92.54
2022-12-15T22:15:28.892Z,92.57
2022-12-15T22:17:56.425Z,92.45
2022-12-15T22:20:24.616Z,92.55
2022-12-15T22:22:51.483Z,92.59
2022-12-15T22:25:19.536Z,92.62
2022-12-15T22:27:46.891Z,92.48
2022-12-15T22:30:18.650Z,92.54
2022-12-15T22:32:46.047Z,92.56
2022-12-15T22:35:24.218Z,92.63
2022-12-15T22:37:53.954Z,92.52
2022-12-15T22:40:23.629Z,92.58
2022-12-15T22:42:55.049Z,92.53
2022-12-15T22:45:24.212Z,92.68
2022-12-15T22:47:52.440Z,92.51
2022-12-15T22:50:25.126Z,92.79
2022-12-15T22:52:52.027Z,92.65
2022-12-15T22:56:18.731Z,92.79
2022-12-15T23:03:27.094Z,92.79
2022-12-15T23:06:53.500Z,92.83
2022-12-15T23:10:20.107Z,92.70
2022-12-15T23:13:46.568Z,92.79
2022-12-15T23:17:13.163Z,92.76
2022-12-15T23:20:39.579Z,92.86
2022-12-15T23:23:07.267Z,92.90
2022-12-15T23:25:33.951Z,92.90
2022-12-15T23:28:00.656Z,92.90
2022-12-15T23:30:27.689Z,92.97
2022-12-15T23:32:55.179Z,92.80
2022-12-15T23:35:22.226Z,92.89
2022-12-15T23:37:49.044Z,92.96
2022-12-15T23:40:21.367Z,92.83
2022-12-15T23:42:49.602Z,92.71
2022-12-15T23:45:17.793Z,93.07
2022-12-15T23:47:44.602Z,93.10
2022-12-15T23:50:11.459Z,93.12
2022-12-15T23:52:38.128Z,92.93
2022-12-15T23:55:05.125Z,93.04
2022-12-15T23:57:31.971Z,93.08
2022-12-15T23:59:58.709Z,93.09
